createdAt,value
2019-04-06T00:01:15.143Z,10.70
2019-04-06T00:03:45.147Z,10.70
2019-04-06T00:06:15.382Z,10.70
2019-04-06T00:08:45.499Z,10.70
2019-04-06T00:11:15.617Z,10.70
2019-04-06T00:13:45.737Z,10.70
2019-04-06T00:16:15.664Z,10.70
2019-04-06T00:18:45.875Z,10.70
2019-04-06T00:21:15.991Z,10.70
2019-04-06T00:23:46.111Z,10.70
2019-04-06T00:26:16.334Z,10.70
2019-04-06T00:28:46.451Z,10.70
2019-04-06T00:31:27.328Z,10.60
2019-04-06T00:33:57.652Z,10.70
2019-04-06T00:36:27.767Z,10.70
2019-04-06T00:38:57.886Z,10.70
2019-04-06T00:41:28.004Z,10.60
2019-04-06T00:43:58.123Z,10.60
2019-04-06T00:46:28.243Z,10.60
2019-04-06T00:48:58.381Z,10.60
2019-04-06T00:51:28.539Z,10.60
2019-04-06T00:53:58.836Z,10.60
2019-04-06T00:56:29.033Z,10.60
2019-04-06T00:58:59.043Z,10.60
2019-04-06T01:01:29.163Z,10.60
2019-04-06T01:03:59.491Z,10.60
2019-04-06T01:06:29.607Z,10.50
2019-04-06T01:08:59.723Z,10.60
2019-04-06T01:11:30.051Z,10.50
2019-04-06T01:14:00.066Z,10.50
2019-04-06T01:16:30.288Z,10.50
2019-04-06T01:19:00.625Z,10.50
2019-04-06T01:21:30.736Z,10.50
2019-04-06T01:24:01.889Z,10.50
2019-04-06T01:26:31.995Z,10.40
2019-04-06T01:29:02.114Z,10.40
2019-04-06T01:31:33.153Z,10.40
2019-04-06T01:34:03.279Z,10.40
2019-04-06T01:36:33.442Z,10.30
2019-04-06T01:39:05.185Z,10.30
2019-04-06T01:41:35.471Z,10.30
2019-04-06T01:44:05.592Z,10.30
2019-04-06T01:46:35.716Z,10.30
2019-04-06T01:49:05.730Z,10.30
2019-04-06T01:51:36.054Z,10.20
2019-04-06T01:54:06.071Z,10.30
2019-04-06T01:56:36.290Z,10.20
2019-04-06T01:59:06.660Z,10.20
2019-04-06T02:01:38.584Z,10.20
2019-04-06T02:04:08.608Z,10.20
2019-04-06T02:06:38.855Z,10.20
2019-04-06T02:09:09.276Z,10.20
2019-04-06T02:11:39.917Z,10.20
2019-04-06T02:14:10.096Z,10.20
2019-04-06T02:16:40.625Z,10.10
2019-04-06T02:19:10.835Z,10.10
2019-04-06T02:21:41.066Z,10.10
2019-04-06T02:24:11.389Z,10.10
2019-04-06T02:26:41.926Z,10.10
2019-04-06T02:29:11.938Z,10.10
2019-04-06T02:31:58.852Z,10.10
2019-04-06T02:34:30.507Z,10.10
2019-04-06T02:37:19.024Z,10.00
2019-04-06T02:40:08.220Z,10.10
2019-04-06T02:42:39.672Z,10.00
2019-04-06T02:45:09.788Z,10.00
2019-04-06T02:47:40.013Z,10.00
2019-04-06T02:50:10.340Z,10.00
2019-04-06T02:52:40.459Z,10.00
2019-04-06T02:55:13.651Z,10.00
2019-04-06T02:57:43.769Z,10.00
2019-04-06T03:00:14.407Z,10.00
2019-04-06T03:02:44.321Z,10.00
2019-04-06T03:05:15.094Z,9.90
2019-04-06T03:07:45.375Z,9.90
2019-04-06T03:10:15.596Z,9.90
2019-04-06T03:12:46.027Z,9.90
2019-04-06T03:15:16.138Z,9.90
2019-04-06T03:17:46.255Z,9.90
2019-04-06T03:20:16.376Z,9.80
2019-04-06T03:22:46.702Z,9.90
2019-04-06T03:25:17.021Z,9.80
2019-04-06T03:27:47.142Z,9.80
2019-04-06T03:30:17.577Z,9.80
2019-04-06T03:32:48.096Z,9.80
2019-04-06T03:35:18.214Z,9.80
2019-04-06T03:37:48.337Z,9.80
2019-04-06T03:40:18.675Z,9.80
2019-04-06T03:42:49.016Z,9.70
2019-04-06T03:45:19.232Z,9.70
2019-04-06T03:47:50.608Z,9.70
2019-04-06T03:50:21.166Z,9.80
2019-04-06T03:52:51.569Z,9.80
2019-04-06T03:55:21.727Z,9.80
2019-04-06T03:57:51.860Z,9.70
2019-04-06T04:00:22.088Z,9.70
2019-04-06T04:02:52.804Z,9.70
2019-04-06T04:05:22.977Z,9.70
2019-04-06T04:07:53.397Z,9.70
2019-04-06T04:10:35.448Z,9.70
2019-04-06T04:13:06.070Z,9.60
2019-04-06T04:15:36.109Z,9.60
2019-04-06T04:18:09.291Z,9.60
2019-04-06T04:20:39.261Z,9.60
2019-04-06T04:23:09.493Z,9.60
2019-04-06T04:25:40.238Z,9.60
2019-04-06T04:28:13.393Z,9.60
2019-04-06T04:30:43.674Z,9.60
2019-04-06T04:33:14.070Z,9.60
2019-04-06T04:35:44.538Z,9.60
2019-04-06T04:38:17.614Z,9.50
2019-04-06T04:40:47.733Z,9.50
2019-04-06T04:43:17.861Z,9.50
2019-04-06T04:45:47.869Z,9.50
2019-04-06T04:48:17.987Z,9.50
2019-04-06T04:50:48.106Z,9.50
2019-04-06T04:53:18.226Z,9.50
2019-04-06T04:55:48.553Z,9.50
2019-04-06T04:58:18.775Z,9.40
2019-04-06T05:00:48.897Z,9.40
2019-04-06T05:03:19.373Z,9.40
2019-04-06T05:05:50.754Z,9.40
2019-04-06T05:08:20.792Z,9.40
2019-04-06T05:10:50.929Z,9.40
2019-04-06T05:13:21.219Z,9.40
2019-04-06T05:15:57.183Z,9.40
2019-04-06T05:18:27.302Z,9.30
2019-04-06T05:20:57.424Z,9.40
2019-04-06T05:23:27.541Z,9.30
2019-04-06T05:25:57.735Z,9.40
2019-04-06T05:28:27.890Z,9.30
2019-04-06T05:30:57.907Z,9.30
2019-04-06T05:33:28.325Z,9.30
2019-04-06T05:35:58.487Z,9.30
2019-04-06T05:38:28.801Z,9.30
2019-04-06T05:40:58.989Z,9.30
2019-04-06T05:43:29.215Z,9.30
2019-04-06T05:45:59.335Z,9.30
2019-04-06T05:48:29.655Z,9.30
2019-04-06T05:50:59.780Z,9.30
2019-04-06T05:53:29.895Z,9.30
2019-04-06T05:56:00.013Z,9.30
2019-04-06T05:58:33.003Z,9.30
2019-04-06T06:01:04.072Z,9.30
2019-04-06T06:03:34.670Z,9.30
2019-04-06T06:06:04.950Z,9.30
2019-04-06T06:08:35.309Z,9.30
2019-04-06T06:11:05.378Z,9.30
2019-04-06T06:13:35.453Z,9.30
2019-04-06T06:16:05.777Z,9.30
2019-04-06T06:18:35.999Z,9.30
2019-04-06T06:21:06.329Z,9.30
2019-04-06T06:23:36.545Z,9.30
2019-04-06T06:26:06.879Z,9.30
2019-04-06T06:28:37.200Z,9.30
2019-04-06T06:31:07.518Z,9.30
2019-04-06T06:33:37.846Z,9.40
2019-04-06T06:36:08.060Z,9.40
2019-04-06T06:38:39.291Z,9.40
2019-04-06T06:41:09.936Z,9.40
2019-04-06T06:43:40.487Z,9.40
2019-04-06T06:46:10.792Z,9.40
2019-04-06T06:48:42.978Z,9.40
2019-04-06T06:51:12.565Z,9.40
2019-04-06T06:53:42.687Z,9.40
2019-04-06T06:56:13.114Z,9.40
2019-04-06T06:58:43.505Z,9.40
2019-04-06T07:01:14.008Z,9.50
2019-04-06T07:03:44.392Z,9.50
2019-04-06T07:06:14.515Z,9.50
2019-04-06T07:08:44.630Z,9.50
2019-04-06T07:11:14.958Z,9.60
2019-04-06T07:13:45.178Z,9.60
2019-04-06T07:16:15.707Z,9.60
2019-04-06T07:18:46.151Z,9.60
2019-04-06T07:21:19.225Z,9.60
2019-04-06T07:23:51.181Z,9.70
2019-04-06T07:26:21.408Z,9.70
2019-04-06T07:28:51.637Z,9.70
2019-04-06T07:31:22.050Z,9.70
2019-04-06T07:33:52.374Z,9.70
2019-04-06T07:36:22.495Z,9.70
2019-04-06T07:38:52.720Z,9.80
2019-04-06T07:41:23.042Z,9.80
2019-04-06T07:43:53.572Z,9.80
2019-04-06T07:46:23.847Z,9.80
2019-04-06T07:48:54.439Z,9.80
2019-04-06T07:51:24.958Z,9.80
2019-04-06T07:53:55.275Z,9.90
2019-04-06T07:56:25.495Z,9.90
2019-04-06T07:58:55.821Z,9.90
2019-04-06T08:01:29.110Z,9.90
2019-04-06T08:03:59.335Z,10.00
2019-04-06T08:06:32.126Z,10.00
2019-04-06T08:09:02.290Z,10.10
2019-04-06T08:11:35.224Z,10.10
2019-04-06T08:14:05.450Z,10.20
2019-04-06T08:16:35.569Z,10.20
2019-04-06T08:19:05.891Z,10.30
2019-04-06T08:21:36.213Z,10.40
2019-04-06T08:24:06.331Z,10.40
2019-04-06T08:26:36.448Z,10.50
2019-04-06T08:29:09.429Z,10.70
2019-04-06T08:31:44.189Z,10.80
2019-04-06T08:34:14.898Z,10.80
2019-04-06T08:36:45.118Z,10.80
2019-04-06T08:39:16.823Z,10.80
2019-04-06T08:41:46.997Z,10.90
2019-04-06T08:44:17.117Z,10.90
2019-04-06T08:46:47.233Z,11.00
2019-04-06T08:49:17.287Z,11.00
2019-04-06T08:51:47.471Z,11.10
2019-04-06T08:54:17.692Z,11.10
2019-04-06T08:56:48.019Z,11.10
2019-04-06T08:59:18.272Z,11.20
2019-04-06T09:01:48.466Z,11.30
2019-04-06T09:04:18.786Z,11.30
2019-04-06T09:06:48.904Z,11.40
2019-04-06T09:09:22.116Z,11.40
2019-04-06T09:11:52.420Z,11.50
2019-04-06T09:14:22.643Z,11.50
2019-04-06T09:16:55.732Z,11.60
2019-04-06T09:19:25.850Z,11.60
2019-04-06T09:21:55.969Z,11.70
2019-04-06T09:24:26.088Z,11.80
2019-04-06T09:26:56.207Z,11.80
2019-04-06T09:29:26.986Z,11.90
2019-04-06T09:31:57.135Z,11.90
2019-04-06T09:34:27.213Z,12.00
2019-04-06T09:36:57.503Z,12.00
2019-04-06T09:39:27.626Z,12.10
2019-04-06T09:41:58.151Z,12.20
2019-04-06T09:44:29.908Z,12.20
2019-04-06T09:47:01.897Z,12.30
2019-04-06T09:49:43.047Z,12.30
2019-04-06T09:52:20.745Z,12.40
2019-04-06T09:54:58.604Z,12.40
2019-04-06T09:57:30.507Z,12.50
2019-04-06T10:00:02.369Z,12.50
2019-04-06T10:02:36.996Z,12.60
2019-04-06T10:05:12.436Z,12.60
2019-04-06T10:07:56.694Z,12.60
2019-04-06T10:10:34.488Z,12.70
2019-04-06T10:13:06.552Z,12.80
2019-04-06T10:15:49.985Z,12.90
2019-04-06T10:18:40.205Z,12.90
2019-04-06T10:21:21.152Z,13.00
2019-04-06T10:23:58.647Z,13.00
2019-04-06T10:26:42.479Z,13.10
2019-04-06T10:29:17.308Z,13.10
2019-04-06T10:32:05.554Z,13.20
2019-04-06T10:34:40.209Z,13.20
2019-04-06T10:37:21.402Z,13.30
2019-04-06T10:39:59.506Z,13.70
2019-04-06T10:42:49.549Z,14.00
2019-04-06T10:45:27.452Z,13.80
2019-04-06T10:47:59.209Z,13.70
2019-04-06T10:50:33.630Z,13.80
2019-04-06T10:53:08.195Z,13.90
2019-04-06T10:55:46.034Z,13.90
2019-04-06T10:58:23.854Z,13.90
2019-04-06T11:01:12.200Z,14.00
2019-04-06T11:04:00.547Z,14.00
2019-04-06T11:06:35.068Z,14.00
2019-04-06T11:09:09.489Z,14.10
2019-04-06T11:11:53.443Z,14.10
2019-04-06T11:14:37.630Z,14.20
2019-04-06T11:17:09.936Z,14.20
2019-04-06T11:19:58.282Z,14.20
2019-04-06T11:22:30.076Z,14.30
2019-04-06T11:25:11.211Z,14.30
2019-04-06T11:27:59.172Z,14.40
2019-04-06T11:30:37.685Z,14.40
2019-04-06T11:33:09.444Z,14.50
2019-04-06T11:35:57.488Z,14.50
2019-04-06T11:38:32.312Z,14.50
2019-04-06T11:41:13.493Z,14.60
2019-04-06T11:43:48.320Z,14.60
2019-04-06T11:46:28.988Z,14.80
2019-04-06T11:49:00.752Z,14.80
2019-04-06T11:51:44.285Z,14.80
2019-04-06T11:54:18.804Z,14.90
2019-04-06T11:56:51.582Z,14.90
2019-04-06T11:59:23.546Z,14.90
2019-04-06T12:01:55.307Z,14.80
2019-04-06T12:04:27.153Z,14.80
2019-04-06T12:07:00.904Z,14.80
2019-04-06T12:09:35.084Z,14.80
2019-04-06T12:12:06.943Z,14.90
2019-04-06T12:14:54.263Z,15.00
2019-04-06T12:17:28.835Z,15.00
2019-04-06T12:20:12.817Z,15.00
2019-04-06T12:22:51.253Z,15.10
2019-04-06T12:25:23.441Z,15.10
2019-04-06T12:28:04.189Z,15.20
2019-04-06T12:30:37.984Z,15.20
2019-04-06T12:33:27.563Z,15.30
2019-04-06T12:35:59.320Z,15.30
2019-04-06T12:38:43.756Z,15.30
2019-04-06T12:41:18.708Z,15.40
2019-04-06T12:44:06.954Z,15.30
2019-04-06T12:46:54.922Z,15.30
2019-04-06T12:49:26.849Z,15.30
2019-04-06T12:52:04.861Z,15.40
2019-04-06T12:54:42.555Z,15.40
2019-04-06T12:57:32.660Z,15.40
2019-04-06T13:00:07.216Z,15.50
2019-04-06T13:02:48.370Z,15.50
2019-04-06T13:05:36.891Z,15.50
2019-04-06T13:08:11.518Z,15.60
2019-04-06T13:10:46.142Z,15.60
2019-04-06T13:13:27.132Z,15.60
2019-04-06T13:16:11.367Z,15.60
2019-04-06T13:18:59.843Z,15.60
2019-04-06T13:21:48.222Z,15.60
2019-04-06T13:24:22.787Z,15.60
2019-04-06T13:27:00.592Z,15.60
2019-04-06T13:29:32.752Z,15.60
2019-04-06T13:32:13.933Z,15.60
2019-04-06T13:35:02.316Z,15.60
2019-04-06T13:37:50.728Z,15.60
2019-04-06T13:40:28.622Z,15.60
2019-04-06T13:43:03.260Z,15.70
2019-04-06T13:45:47.095Z,15.70
2019-04-06T13:48:27.665Z,15.70
2019-04-06T13:51:16.107Z,15.70
2019-04-06T13:53:56.984Z,15.70
2019-04-06T13:56:44.711Z,15.70
2019-04-06T13:59:34.493Z,15.70
2019-04-06T14:02:18.336Z,15.70
2019-04-06T14:04:53.237Z,15.80
2019-04-06T14:07:34.139Z,15.70
2019-04-06T14:10:13.583Z,15.70
2019-04-06T14:12:51.293Z,15.70
2019-04-06T14:15:28.762Z,15.70
2019-04-06T14:18:13.218Z,15.70
2019-04-06T14:20:48.133Z,15.70
2019-04-06T14:23:23.389Z,15.70
2019-04-06T14:26:10.616Z,15.70
2019-04-06T14:28:42.367Z,15.70
2019-04-06T14:31:27.908Z,15.70
2019-04-06T14:33:53.254Z,15.70
2019-04-06T14:36:25.119Z,15.70
2019-04-06T14:39:00.148Z,15.70
2019-04-06T14:41:40.919Z,15.70
2019-04-06T14:44:27.834Z,15.70
2019-04-06T14:46:59.584Z,15.70
2019-04-06T14:49:37.085Z,15.60
2019-04-06T14:52:08.841Z,15.70
2019-04-06T14:54:41.096Z,15.60
2019-04-06T14:57:13.462Z,15.60
2019-04-06T14:59:48.414Z,15.60
2019-04-06T15:02:30.164Z,15.60
2019-04-06T15:05:05.141Z,15.60
2019-04-06T15:07:53.693Z,15.60
2019-04-06T15:10:40.910Z,15.60
2019-04-06T15:13:13.082Z,15.60
2019-04-06T15:15:47.906Z,15.60
2019-04-06T15:18:36.355Z,15.60
2019-04-06T15:21:24.505Z,15.50
2019-04-06T15:24:05.473Z,15.50
2019-04-06T15:26:43.130Z,15.50
2019-04-06T15:29:17.869Z,15.50
2019-04-06T15:31:51.299Z,15.50
2019-04-06T15:34:29.018Z,15.40
2019-04-06T15:37:01.023Z,15.40
2019-04-06T15:39:33.021Z,15.40
2019-04-06T15:42:13.587Z,15.40
2019-04-06T15:45:01.624Z,15.30
2019-04-06T15:47:50.785Z,15.30
2019-04-06T15:50:34.732Z,15.30
2019-04-06T15:53:16.156Z,15.30
2019-04-06T15:55:56.882Z,15.30
2019-04-06T15:58:37.451Z,15.20
2019-04-06T16:01:21.501Z,15.20
2019-04-06T16:03:53.765Z,15.20
2019-04-06T16:06:34.531Z,15.20
2019-04-06T16:09:24.516Z,15.10
2019-04-06T16:12:11.811Z,15.10
2019-04-06T16:14:47.074Z,15.10
2019-04-06T16:17:23.809Z,15.10
2019-04-06T16:19:54.712Z,15.00
2019-04-06T16:22:26.650Z,15.00
2019-04-06T16:25:01.583Z,15.00
2019-04-06T16:27:50.576Z,15.00
2019-04-06T16:30:22.503Z,15.00
2019-04-06T16:33:00.181Z,15.00
2019-04-06T16:35:32.175Z,15.00
2019-04-06T16:38:16.503Z,14.90
2019-04-06T16:40:51.760Z,14.90
2019-04-06T16:43:39.939Z,14.90
2019-04-06T16:46:28.046Z,14.90
2019-04-06T16:49:00.002Z,14.80
2019-04-06T16:51:31.795Z,14.80
2019-04-06T16:54:03.622Z,14.80
2019-04-06T16:56:44.599Z,14.80
2019-04-06T16:59:16.564Z,14.80
2019-04-06T17:02:00.338Z,14.80
2019-04-06T17:04:35.435Z,14.80
2019-04-06T17:07:10.207Z,14.70
2019-04-06T17:09:42.019Z,14.70
2019-04-06T17:12:32.211Z,14.70
2019-04-06T17:15:20.660Z,14.60
2019-04-06T17:17:52.651Z,14.60
2019-04-06T17:20:27.355Z,14.60
2019-04-06T17:23:01.973Z,14.60
2019-04-06T17:25:48.783Z,14.50
2019-04-06T17:28:29.354Z,14.50
2019-04-06T17:31:19.655Z,14.50
2019-04-06T17:33:57.437Z,14.50
2019-04-06T17:36:38.635Z,14.50
2019-04-06T17:39:25.757Z,14.40
2019-04-06T17:42:06.953Z,14.40
2019-04-06T17:44:58.819Z,14.40
2019-04-06T17:47:37.236Z,14.40
2019-04-06T17:50:15.162Z,14.30
2019-04-06T17:52:53.251Z,14.30
2019-04-06T17:55:34.633Z,14.20
2019-04-06T17:58:18.921Z,14.20
2019-04-06T18:01:07.210Z,14.20
2019-04-06T18:03:48.605Z,14.20
2019-04-06T18:06:36.882Z,14.20
2019-04-06T18:09:25.793Z,14.00
2019-04-06T18:11:57.732Z,13.90
2019-04-06T18:14:28.030Z,14.00
2019-04-06T18:17:00.904Z,14.00
2019-04-06T18:19:34.794Z,14.00
2019-04-06T18:22:05.237Z,14.00
2019-04-06T18:24:35.562Z,13.90
2019-04-06T18:27:05.981Z,13.90
2019-04-06T18:29:36.664Z,13.90
2019-04-06T18:32:08.582Z,13.90
2019-04-06T18:34:38.818Z,13.80
2019-04-06T18:37:11.233Z,13.80
2019-04-06T18:39:44.881Z,13.80
2019-04-06T18:42:15.413Z,13.80
2019-04-06T18:44:45.834Z,13.80
2019-04-06T18:47:16.501Z,13.50
2019-04-06T18:49:46.898Z,13.70
2019-04-06T18:52:17.118Z,13.90
2019-04-06T18:54:47.234Z,14.10
2019-04-06T18:57:17.455Z,14.30
2019-04-06T18:59:47.774Z,14.30
2019-04-06T19:02:18.105Z,14.40
2019-04-06T19:04:48.648Z,14.50
2019-04-06T19:07:19.149Z,14.50
2019-04-06T19:09:49.754Z,14.50
2019-04-06T19:12:20.126Z,14.50
2019-04-06T19:14:50.832Z,14.60
2019-04-06T19:17:21.337Z,14.60
2019-04-06T19:19:51.551Z,14.50
2019-04-06T19:22:21.723Z,14.50
2019-04-06T19:24:52.159Z,14.50
2019-04-06T19:27:22.775Z,14.60
2019-04-06T19:29:53.207Z,14.50
2019-04-06T19:32:23.425Z,14.50
2019-04-06T19:34:53.749Z,14.50
2019-04-06T19:37:23.894Z,14.50
2019-04-06T19:39:54.193Z,14.50
2019-04-06T19:42:24.857Z,14.50
2019-04-06T19:44:55.340Z,14.40
2019-04-06T19:47:25.470Z,14.40
2019-04-06T19:49:55.694Z,14.40
2019-04-06T19:52:28.510Z,14.40
2019-04-06T19:54:58.644Z,14.40
2019-04-06T19:57:28.859Z,14.40
2019-04-06T19:59:59.142Z,14.40
2019-04-06T20:02:31.631Z,14.40
2019-04-06T20:05:02.052Z,14.40
2019-04-06T20:07:32.185Z,14.40
2019-04-06T20:10:02.704Z,14.30
2019-04-06T20:12:33.218Z,14.30
2019-04-06T20:15:03.979Z,14.20
2019-04-06T20:17:34.277Z,14.20
2019-04-06T20:20:06.648Z,14.20
2019-04-06T20:22:36.766Z,14.20
2019-04-06T20:25:08.268Z,14.20
2019-04-06T20:27:38.849Z,14.20
2019-04-06T20:30:11.264Z,14.10
2019-04-06T20:32:41.441Z,14.10
2019-04-06T20:35:11.985Z,14.10
2019-04-06T20:37:42.283Z,14.20
2019-04-06T20:40:14.099Z,14.10
2019-04-06T20:42:44.799Z,14.10
2019-04-06T20:45:15.651Z,14.10
2019-04-06T20:47:45.951Z,14.10
2019-04-06T20:50:16.870Z,14.10
2019-04-06T20:52:47.211Z,14.10
2019-04-06T20:55:17.908Z,14.10
2019-04-06T20:57:48.427Z,14.10
2019-04-06T21:00:18.926Z,14.00
2019-04-06T21:02:49.151Z,14.00
2019-04-06T21:05:19.549Z,14.00
2019-04-06T21:07:49.764Z,14.00
2019-04-06T21:10:20.194Z,13.90
2019-04-06T21:12:50.873Z,13.90
2019-04-06T21:15:21.449Z,13.80
2019-04-06T21:17:51.985Z,13.70
2019-04-06T21:20:22.206Z,13.70
2019-04-06T21:22:52.529Z,13.70
2019-04-06T21:25:23.354Z,13.70
2019-04-06T21:27:53.790Z,13.60
2019-04-06T21:30:24.479Z,13.60
2019-04-06T21:32:54.649Z,13.60
2019-04-06T21:35:24.866Z,13.50
2019-04-06T21:37:55.091Z,13.40
2019-04-06T21:40:25.207Z,13.50
2019-04-06T21:42:55.325Z,13.40
2019-04-06T21:45:26.131Z,13.50
2019-04-06T21:47:56.383Z,13.50
2019-04-06T21:50:26.503Z,13.40
2019-04-06T21:52:56.623Z,13.40
2019-04-06T21:55:27.204Z,13.40
2019-04-06T21:57:57.682Z,13.40
2019-04-06T22:00:45.737Z,13.40
2019-04-06T22:03:16.663Z,13.40
2019-04-06T22:05:47.580Z,13.30
2019-04-06T22:08:18.727Z,13.30
2019-04-06T22:10:49.112Z,13.30
2019-04-06T22:13:19.529Z,13.20
2019-04-06T22:15:49.811Z,13.20
2019-04-06T22:18:20.368Z,13.20
2019-04-06T22:20:51.244Z,13.10
2019-04-06T22:23:22.535Z,13.10
2019-04-06T22:25:53.610Z,13.10
2019-04-06T22:28:24.461Z,13.00
2019-04-06T22:30:57.797Z,13.10
2019-04-06T22:33:27.919Z,13.10
2019-04-06T22:35:58.491Z,13.00
2019-04-06T22:38:28.780Z,13.00
2019-04-06T22:40:59.093Z,13.00
2019-04-06T22:43:29.444Z,13.00
2019-04-06T22:45:59.928Z,12.90
2019-04-06T22:48:30.170Z,12.90
2019-04-06T22:51:00.286Z,12.90
2019-04-06T22:53:30.533Z,12.90
2019-04-06T22:56:00.914Z,12.80
2019-04-06T22:58:32.100Z,12.80
2019-04-06T23:01:03.938Z,12.80
2019-04-06T23:03:48.201Z,12.80
2019-04-06T23:06:26.198Z,12.70
2019-04-06T23:08:56.384Z,12.70
2019-04-06T23:11:26.638Z,12.70
2019-04-06T23:13:56.756Z,12.70
2019-04-06T23:16:27.874Z,12.70
2019-04-06T23:18:58.162Z,12.60
2019-04-06T23:21:30.510Z,12.60
2019-04-06T23:24:03.039Z,12.60
2019-04-06T23:26:32.834Z,12.60
2019-04-06T23:29:03.493Z,12.60
2019-04-06T23:31:33.736Z,12.50
2019-04-06T23:34:05.443Z,12.50
2019-04-06T23:36:36.223Z,12.50
2019-04-06T23:39:09.227Z,12.40
2019-04-06T23:41:42.797Z,12.40
2019-04-06T23:44:13.343Z,12.40
2019-04-06T23:46:43.669Z,12.40
2019-04-06T23:49:13.789Z,12.40
2019-04-06T23:51:43.903Z,12.40
2019-04-06T23:54:17.094Z,12.30
2019-04-06T23:56:47.555Z,12.30
2019-04-06T23:59:17.951Z,12.30
